sensor_id;sensor_type;location;lat;lon;timestamp;P1;durP1;ratioP1;P2;durP2;ratioP2
33357;SDS011;19717;42.614;23.418;2022-10-04T00:04:40;3.72;;;2.08;;
33357;SDS011;19717;42.614;23.418;2022-10-04T00:12:13;3.45;;;2.90;;
33357;SDS011;19717;42.614;23.418;2022-10-04T00:14:41;7.40;;;2.30;;
33357;SDS011;19717;42.614;23.418;2022-10-04T00:17:12;5.82;;;2.28;;
33357;SDS011;19717;42.614;23.418;2022-10-04T00:19:48;6.53;;;2.15;;
33357;SDS011;19717;42.614;23.418;2022-10-04T00:22:16;1.92;;;1.70;;
33357;SDS011;19717;42.614;23.418;2022-10-04T00:27:27;2.60;;;2.22;;
33357;SDS011;19717;42.614;23.418;2022-10-04T00:32:29;7.03;;;2.20;;
33357;SDS011;19717;42.614;23.418;2022-10-04T00:34:57;2.22;;;2.03;;
33357;SDS011;19717;42.614;23.418;2022-10-04T00:37:23;5.18;;;2.40;;
33357;SDS011;19717;42.614;23.418;2022-10-04T00:42:34;2.88;;;1.80;;
33357;SDS011;19717;42.614;23.418;2022-10-04T00:50:14;7.45;;;1.88;;
33357;SDS011;19717;42.614;23.418;2022-10-04T00:52:44;2.05;;;1.85;;
33357;SDS011;19717;42.614;23.418;2022-10-04T00:55:17;1.92;;;1.70;;
33357;SDS011;19717;42.614;23.418;2022-10-04T00:57:45;2.72;;;1.90;;
33357;SDS011;19717;42.614;23.418;2022-10-04T01:00:13;2.42;;;1.70;;
33357;SDS011;19717;42.614;23.418;2022-10-04T01:02:55;1.60;;;1.50;;
33357;SDS011;19717;42.614;23.418;2022-10-04T01:07:52;1.95;;;1.70;;
33357;SDS011;19717;42.614;23.418;2022-10-04T01:10:20;2.17;;;1.48;;
33357;SDS011;19717;42.614;23.418;2022-10-04T01:12:55;2.60;;;1.42;;
33357;SDS011;19717;42.614;23.418;2022-10-04T01:15:27;2.00;;;1.48;;
33357;SDS011;19717;42.614;23.418;2022-10-04T01:18:15;3.17;;;2.70;;
33357;SDS011;19717;42.614;23.418;2022-10-04T01:25:59;2.30;;;2.13;;
33357;SDS011;19717;42.614;23.418;2022-10-04T01:28:25;4.25;;;2.10;;
33357;SDS011;19717;42.614;23.418;2022-10-04T01:30:52;2.38;;;2.17;;
33357;SDS011;19717;42.614;23.418;2022-10-04T01:33:18;4.13;;;2.38;;
33357;SDS011;19717;42.614;23.418;2022-10-04T01:35:44;1.70;;;1.52;;
33357;SDS011;19717;42.614;23.418;2022-10-04T01:38:10;4.10;;;2.33;;
33357;SDS011;19717;42.614;23.418;2022-10-04T01:40:40;2.95;;;2.50;;
33357;SDS011;19717;42.614;23.418;2022-10-04T01:43:10;3.00;;;2.40;;
33357;SDS011;19717;42.614;23.418;2022-10-04T01:45:39;10.02;;;3.33;;
33357;SDS011;19717;42.614;23.418;2022-10-04T01:48:09;6.22;;;3.22;;
33357;SDS011;19717;42.614;23.418;2022-10-04T01:50:43;5.40;;;2.88;;
33357;SDS011;19717;42.614;23.418;2022-10-04T01:53:18;2.45;;;1.58;;
33357;SDS011;19717;42.614;23.418;2022-10-04T01:55:52;20.65;;;10.40;;
33357;SDS011;19717;42.614;23.418;2022-10-04T01:58:21;4.13;;;2.45;;
33357;SDS011;19717;42.614;23.418;2022-10-04T02:00:50;6.22;;;4.10;;
33357;SDS011;19717;42.614;23.418;2022-10-04T02:03:19;2.78;;;1.90;;
33357;SDS011;19717;42.614;23.418;2022-10-04T02:05:50;8.27;;;3.83;;
33357;SDS011;19717;42.614;23.418;2022-10-04T02:08:17;5.15;;;3.17;;
33357;SDS011;19717;42.614;23.418;2022-10-04T02:10:47;4.50;;;2.05;;
33357;SDS011;19717;42.614;23.418;2022-10-04T02:13:14;3.85;;;2.42;;
33357;SDS011;19717;42.614;23.418;2022-10-04T02:15:45;3.45;;;2.75;;
33357;SDS011;19717;42.614;23.418;2022-10-04T02:18:13;3.15;;;2.15;;
33357;SDS011;19717;42.614;23.418;2022-10-04T02:20:39;2.78;;;2.47;;
33357;SDS011;19717;42.614;23.418;2022-10-04T02:23:06;4.22;;;1.88;;
33357;SDS011;19717;42.614;23.418;2022-10-04T02:25:34;1.75;;;1.65;;
33357;SDS011;19717;42.614;23.418;2022-10-04T02:28:00;2.63;;;2.20;;
33357;SDS011;19717;42.614;23.418;2022-10-04T02:30:27;4.13;;;1.80;;
33357;SDS011;19717;42.614;23.418;2022-10-04T02:32:53;3.78;;;1.95;;
33357;SDS011;19717;42.614;23.418;2022-10-04T02:35:31;5.68;;;1.50;;
33357;SDS011;19717;42.614;23.418;2022-10-04T02:38:09;4.05;;;1.63;;
33357;SDS011;19717;42.614;23.418;2022-10-04T02:40:52;1.70;;;1.40;;
33357;SDS011;19717;42.614;23.418;2022-10-04T02:43:29;2.25;;;1.80;;
33357;SDS011;19717;42.614;23.418;2022-10-04T02:46:04;2.72;;;2.03;;
33357;SDS011;19717;42.614;23.418;2022-10-04T02:48:35;2.55;;;1.85;;
33357;SDS011;19717;42.614;23.418;2022-10-04T02:51:10;2.55;;;2.03;;
33357;SDS011;19717;42.614;23.418;2022-10-04T02:53:42;6.22;;;2.70;;
33357;SDS011;19717;42.614;23.418;2022-10-04T02:56:10;4.20;;;2.78;;
33357;SDS011;19717;42.614;23.418;2022-10-04T02:58:37;4.10;;;2.60;;
33357;SDS011;19717;42.614;23.418;2022-10-04T03:01:05;4.60;;;2.90;;
33357;SDS011;19717;42.614;23.418;2022-10-04T03:03:35;4.65;;;3.22;;
33357;SDS011;19717;42.614;23.418;2022-10-04T03:06:07;4.68;;;3.20;;
33357;SDS011;19717;42.614;23.418;2022-10-04T03:08:50;5.60;;;3.35;;
33357;SDS011;19717;42.614;23.418;2022-10-04T03:11:18;5.03;;;2.20;;
33357;SDS011;19717;42.614;23.418;2022-10-04T03:13:47;4.75;;;4.10;;
33357;SDS011;19717;42.614;23.418;2022-10-04T03:16:14;4.13;;;2.83;;
33357;SDS011;19717;42.614;23.418;2022-10-04T03:18:40;2.75;;;2.08;;
33357;SDS011;19717;42.614;23.418;2022-10-04T03:21:08;5.18;;;2.20;;
33357;SDS011;19717;42.614;23.418;2022-10-04T03:23:35;4.57;;;2.85;;
33357;SDS011;19717;42.614;23.418;2022-10-04T03:26:09;3.22;;;2.85;;
33357;SDS011;19717;42.614;23.418;2022-10-04T03:28:39;4.25;;;2.70;;
33357;SDS011;19717;42.614;23.418;2022-10-04T03:31:05;3.03;;;2.45;;
33357;SDS011;19717;42.614;23.418;2022-10-04T03:33:31;4.28;;;2.78;;
33357;SDS011;19717;42.614;23.418;2022-10-04T03:35:58;4.20;;;3.33;;
33357;SDS011;19717;42.614;23.418;2022-10-04T03:38:24;3.20;;;2.50;;
33357;SDS011;19717;42.614;23.418;2022-10-04T03:40:55;2.55;;;2.20;;
33357;SDS011;19717;42.614;23.418;2022-10-04T03:43:26;3.15;;;2.55;;
33357;SDS011;19717;42.614;23.418;2022-10-04T03:45:55;4.15;;;2.20;;
33357;SDS011;19717;42.614;23.418;2022-10-04T03:48:29;2.40;;;2.03;;
33357;SDS011;19717;42.614;23.418;2022-10-04T03:50:56;3.08;;;2.05;;
33357;SDS011;19717;42.614;23.418;2022-10-04T03:53:27;7.03;;;3.53;;
33357;SDS011;19717;42.614;23.418;2022-10-04T03:55:54;5.40;;;2.60;;
33357;SDS011;19717;42.614;23.418;2022-10-04T03:58:20;4.55;;;3.88;;
33357;SDS011;19717;42.614;23.418;2022-10-04T04:03:50;3.78;;;2.80;;
33357;SDS011;19717;42.614;23.418;2022-10-04T04:06:17;5.05;;;2.53;;
33357;SDS011;19717;42.614;23.418;2022-10-04T04:08:44;5.57;;;2.20;;
33357;SDS011;19717;42.614;23.418;2022-10-04T04:11:17;3.13;;;2.20;;
33357;SDS011;19717;42.614;23.418;2022-10-04T04:13:59;5.05;;;2.63;;
33357;SDS011;19717;42.614;23.418;2022-10-04T04:16:28;3.53;;;2.75;;
33357;SDS011;19717;42.614;23.418;2022-10-04T04:18:56;3.08;;;2.58;;
33357;SDS011;19717;42.614;23.418;2022-10-04T04:21:23;5.80;;;2.60;;
33357;SDS011;19717;42.614;23.418;2022-10-04T04:23:52;4.43;;;2.85;;
33357;SDS011;19717;42.614;23.418;2022-10-04T04:28:53;4.15;;;2.67;;
33357;SDS011;19717;42.614;23.418;2022-10-04T04:33:52;3.10;;;2.53;;
33357;SDS011;19717;42.614;23.418;2022-10-04T04:36:21;3.67;;;2.50;;
33357;SDS011;19717;42.614;23.418;2022-10-04T04:38:47;2.65;;;2.45;;
33357;SDS011;19717;42.614;23.418;2022-10-04T04:41:32;3.85;;;2.80;;
33357;SDS011;19717;42.614;23.418;2022-10-04T04:44:02;3.85;;;2.65;;
33357;SDS011;19717;42.614;23.418;2022-10-04T04:46:29;5.65;;;2.90;;
33357;SDS011;19717;42.614;23.418;2022-10-04T04:48:57;13.95;;;3.15;;
33357;SDS011;19717;42.614;23.418;2022-10-04T04:51:25;3.13;;;2.83;;
33357;SDS011;19717;42.614;23.418;2022-10-04T04:53:51;4.20;;;3.15;;
33357;SDS011;19717;42.614;23.418;2022-10-04T04:56:20;4.38;;;3.28;;
33357;SDS011;19717;42.614;23.418;2022-10-04T04:58:47;5.03;;;2.95;;
33357;SDS011;19717;42.614;23.418;2022-10-04T05:04:35;5.40;;;3.13;;
33357;SDS011;19717;42.614;23.418;2022-10-04T05:06:37;8.05;;;3.30;;
33357;SDS011;19717;42.614;23.418;2022-10-04T05:09:04;7.25;;;3.28;;
33357;SDS011;19717;42.614;23.418;2022-10-04T05:11:35;6.53;;;3.30;;
33357;SDS011;19717;42.614;23.418;2022-10-04T05:14:04;10.15;;;3.40;;
33357;SDS011;19717;42.614;23.418;2022-10-04T05:16:35;4.53;;;3.17;;
33357;SDS011;19717;42.614;23.418;2022-10-04T05:19:07;3.08;;;2.78;;
33357;SDS011;19717;42.614;23.418;2022-10-04T05:21:37;8.95;;;2.88;;
33357;SDS011;19717;42.614;23.418;2022-10-04T05:24:11;8.30;;;3.00;;
33357;SDS011;19717;42.614;23.418;2022-10-04T05:26:38;4.28;;;3.00;;
33357;SDS011;19717;42.614;23.418;2022-10-04T05:29:07;4.50;;;3.22;;
33357;SDS011;19717;42.614;23.418;2022-10-04T05:31:40;4.22;;;2.85;;
33357;SDS011;19717;42.614;23.418;2022-10-04T05:34:23;4.32;;;2.90;;
33357;SDS011;19717;42.614;23.418;2022-10-04T05:39:32;3.03;;;2.50;;
33357;SDS011;19717;42.614;23.418;2022-10-04T05:44:43;3.35;;;2.60;;
33357;SDS011;19717;42.614;23.418;2022-10-04T05:47:11;7.05;;;2.80;;
33357;SDS011;19717;42.614;23.418;2022-10-04T05:49:42;3.88;;;3.25;;
33357;SDS011;19717;42.614;23.418;2022-10-04T05:52:13;3.20;;;2.90;;
33357;SDS011;19717;42.614;23.418;2022-10-04T05:54:40;3.00;;;2.70;;
33357;SDS011;19717;42.614;23.418;2022-10-04T06:05:06;2.65;;;2.45;;
33357;SDS011;19717;42.614;23.418;2022-10-04T06:15:16;3.22;;;2.80;;
33357;SDS011;19717;42.614;23.418;2022-10-04T06:20:24;4.25;;;3.13;;
33357;SDS011;19717;42.614;23.418;2022-10-04T06:23:00;5.40;;;3.50;;
33357;SDS011;19717;42.614;23.418;2022-10-04T06:25:33;4.78;;;3.10;;
33357;SDS011;19717;42.614;23.418;2022-10-04T06:30:30;5.13;;;3.15;;
33357;SDS011;19717;42.614;23.418;2022-10-04T06:38:05;4.28;;;2.88;;
33357;SDS011;19717;42.614;23.418;2022-10-04T06:43:24;4.32;;;3.08;;
33357;SDS011;19717;42.614;23.418;2022-10-04T06:51:00;4.75;;;3.00;;
33357;SDS011;19717;42.614;23.418;2022-10-04T06:53:50;6.45;;;3.17;;
33357;SDS011;19717;42.614;23.418;2022-10-04T07:01:46;7.10;;;2.90;;
33357;SDS011;19717;42.614;23.418;2022-10-04T07:04:34;5.38;;;3.08;;
33357;SDS011;19717;42.614;23.418;2022-10-04T07:07:06;2.80;;;2.60;;
33357;SDS011;19717;42.614;23.418;2022-10-04T07:10:07;3.85;;;2.17;;
33357;SDS011;19717;42.614;23.418;2022-10-04T07:12:41;3.50;;;2.40;;
33357;SDS011;19717;42.614;23.418;2022-10-04T07:15:18;2.45;;;2.15;;
33357;SDS011;19717;42.614;23.418;2022-10-04T07:17:44;3.38;;;2.88;;
33357;SDS011;19717;42.614;23.418;2022-10-04T07:20:45;3.10;;;2.67;;
33357;SDS011;19717;42.614;23.418;2022-10-04T07:23:11;3.53;;;2.50;;
33357;SDS011;19717;42.614;23.418;2022-10-04T07:25:46;5.10;;;2.60;;
33357;SDS011;19717;42.614;23.418;2022-10-04T07:28:15;3.63;;;2.65;;
33357;SDS011;19717;42.614;23.418;2022-10-04T07:31:09;4.60;;;2.80;;
33357;SDS011;19717;42.614;23.418;2022-10-04T07:33:41;8.32;;;4.43;;
33357;SDS011;19717;42.614;23.418;2022-10-04T07:36:09;4.78;;;3.25;;
33357;SDS011;19717;42.614;23.418;2022-10-04T07:38:37;3.55;;;3.00;;
33357;SDS011;19717;42.614;23.418;2022-10-04T07:41:17;2.78;;;2.53;;
33357;SDS011;19717;42.614;23.418;2022-10-04T07:43:53;3.45;;;2.67;;
33357;SDS011;19717;42.614;23.418;2022-10-04T07:49:10;2.50;;;2.30;;
33357;SDS011;19717;42.614;23.418;2022-10-04T07:56:51;5.47;;;2.47;;
33357;SDS011;19717;42.614;23.418;2022-10-04T08:01:58;3.95;;;3.10;;
33357;SDS011;19717;42.614;23.418;2022-10-04T08:07:01;3.10;;;2.40;;
33357;SDS011;19717;42.614;23.418;2022-10-04T08:12:33;2.78;;;2.58;;
33357;SDS011;19717;42.614;23.418;2022-10-04T08:31:06;3.22;;;2.83;;
33357;SDS011;19717;42.614;23.418;2022-10-04T08:36:21;5.03;;;2.20;;
33357;SDS011;19717;42.614;23.418;2022-10-04T08:39:00;3.00;;;2.25;;
33357;SDS011;19717;42.614;23.418;2022-10-04T09:10:53;2.30;;;2.10;;
33357;SDS011;19717;42.614;23.418;2022-10-04T09:21:07;4.72;;;2.17;;
33357;SDS011;19717;42.614;23.418;2022-10-04T09:36:51;2.55;;;1.60;;
33357;SDS011;19717;42.614;23.418;2022-10-04T09:42:11;1.60;;;1.50;;
33357;SDS011;19717;42.614;23.418;2022-10-04T10:13:31;5.25;;;1.83;;
33357;SDS011;19717;42.614;23.418;2022-10-04T10:24:31;1.98;;;1.60;;
33357;SDS011;19717;42.614;23.418;2022-10-04T10:40:31;3.47;;;2.78;;
33357;SDS011;19717;42.614;23.418;2022-10-04T10:43:08;2.33;;;2.13;;
33357;SDS011;19717;42.614;23.418;2022-10-04T10:56:07;2.35;;;2.15;;
33357;SDS011;19717;42.614;23.418;2022-10-04T10:58:52;4.30;;;2.50;;
33357;SDS011;19717;42.614;23.418;2022-10-04T11:06:28;3.30;;;2.58;;
33357;SDS011;19717;42.614;23.418;2022-10-04T11:30:26;2.20;;;2.00;;
33357;SDS011;19717;42.614;23.418;2022-10-04T11:33:04;2.00;;;1.90;;
33357;SDS011;19717;42.614;23.418;2022-10-04T11:35:56;2.65;;;2.33;;
33357;SDS011;19717;42.614;23.418;2022-10-04T11:54:09;3.55;;;2.92;;
33357;SDS011;19717;42.614;23.418;2022-10-04T11:59:14;8.93;;;4.47;;
33357;SDS011;19717;42.614;23.418;2022-10-04T12:09:41;2.22;;;1.98;;
33357;SDS011;19717;42.614;23.418;2022-10-04T12:30:35;3.45;;;2.00;;
33357;SDS011;19717;42.614;23.418;2022-10-04T12:43:30;2.08;;;1.85;;
33357;SDS011;19717;42.614;23.418;2022-10-04T12:48:41;2.00;;;1.80;;
33357;SDS011;19717;42.614;23.418;2022-10-04T12:53:37;4.50;;;2.20;;
33357;SDS011;19717;42.614;23.418;2022-10-04T13:01:25;3.15;;;2.17;;
33357;SDS011;19717;42.614;23.418;2022-10-04T13:09:14;2.33;;;2.13;;
33357;SDS011;19717;42.614;23.418;2022-10-04T13:22:19;3.65;;;2.30;;
33357;SDS011;19717;42.614;23.418;2022-10-04T13:25:07;3.17;;;2.13;;
33357;SDS011;19717;42.614;23.418;2022-10-04T13:30:43;5.40;;;2.50;;
33357;SDS011;19717;42.614;23.418;2022-10-04T13:35:54;3.00;;;2.05;;
33357;SDS011;19717;42.614;23.418;2022-10-04T13:38:36;5.40;;;2.38;;
33357;SDS011;19717;42.614;23.418;2022-10-04T13:46:52;4.63;;;2.38;;
33357;SDS011;19717;42.614;23.418;2022-10-04T14:07:45;5.20;;;2.83;;
33357;SDS011;19717;42.614;23.418;2022-10-04T14:10:36;9.02;;;2.97;;
33357;SDS011;19717;42.614;23.418;2022-10-04T14:16:04;14.93;;;7.15;;
33357;SDS011;19717;42.614;23.418;2022-10-04T14:28:56;17.45;;;9.35;;
33357;SDS011;19717;42.614;23.418;2022-10-04T14:31:45;7.25;;;4.10;;
33357;SDS011;19717;42.614;23.418;2022-10-04T14:44:44;8.60;;;4.80;;
33357;SDS011;19717;42.614;23.418;2022-10-04T14:47:18;18.25;;;9.43;;
33357;SDS011;19717;42.614;23.418;2022-10-04T14:49:58;6.25;;;4.32;;
33357;SDS011;19717;42.614;23.418;2022-10-04T15:00:10;5.72;;;4.00;;
33357;SDS011;19717;42.614;23.418;2022-10-04T15:10:39;6.50;;;3.63;;
33357;SDS011;19717;42.614;23.418;2022-10-04T15:18:52;6.13;;;4.13;;
33357;SDS011;19717;42.614;23.418;2022-10-04T15:29:26;4.55;;;3.95;;
33357;SDS011;19717;42.614;23.418;2022-10-04T15:32:14;8.73;;;3.88;;
33357;SDS011;19717;42.614;23.418;2022-10-04T15:37:25;7.38;;;3.78;;
33357;SDS011;19717;42.614;23.418;2022-10-04T15:48:20;5.55;;;4.45;;
33357;SDS011;19717;42.614;23.418;2022-10-04T16:01:30;5.63;;;3.88;;
33357;SDS011;19717;42.614;23.418;2022-10-04T16:04:46;5.00;;;4.20;;
33357;SDS011;19717;42.614;23.418;2022-10-04T16:06:48;6.82;;;3.90;;
33357;SDS011;19717;42.614;23.418;2022-10-04T16:14:35;5.35;;;4.38;;
33357;SDS011;19717;42.614;23.418;2022-10-04T16:22:29;12.80;;;5.07;;
33357;SDS011;19717;42.614;23.418;2022-10-04T16:24:57;7.82;;;4.25;;
33357;SDS011;19717;42.614;23.418;2022-10-04T16:35:23;6.45;;;4.30;;
33357;SDS011;19717;42.614;23.418;2022-10-04T16:42:53;6.35;;;4.35;;
33357;SDS011;19717;42.614;23.418;2022-10-04T16:50:17;24.60;;;10.15;;
33357;SDS011;19717;42.614;23.418;2022-10-04T17:03:40;23.35;;;11.05;;
33357;SDS011;19717;42.614;23.418;2022-10-04T17:06:13;18.63;;;8.57;;
33357;SDS011;19717;42.614;23.418;2022-10-04T17:16:36;6.85;;;5.07;;
33357;SDS011;19717;42.614;23.418;2022-10-04T17:24:19;37.58;;;19.95;;
33357;SDS011;19717;42.614;23.418;2022-10-04T17:27:42;34.38;;;18.83;;
33357;SDS011;19717;42.614;23.418;2022-10-04T17:29:43;21.65;;;9.85;;
33357;SDS011;19717;42.614;23.418;2022-10-04T17:37:32;10.70;;;6.95;;
33357;SDS011;19717;42.614;23.418;2022-10-04T17:48:09;8.05;;;4.22;;
33357;SDS011;19717;42.614;23.418;2022-10-04T17:54:02;7.85;;;4.53;;
33357;SDS011;19717;42.614;23.418;2022-10-04T17:56:49;15.45;;;8.57;;
33357;SDS011;19717;42.614;23.418;2022-10-04T17:59:18;6.07;;;4.30;;
33357;SDS011;19717;42.614;23.418;2022-10-04T18:04:17;8.57;;;5.15;;
33357;SDS011;19717;42.614;23.418;2022-10-04T18:12:26;12.52;;;8.20;;
33357;SDS011;19717;42.614;23.418;2022-10-04T18:14:46;11.55;;;7.40;;
33357;SDS011;19717;42.614;23.418;2022-10-04T18:22:48;17.33;;;9.77;;
33357;SDS011;19717;42.614;23.418;2022-10-04T18:25:18;13.90;;;9.48;;
33357;SDS011;19717;42.614;23.418;2022-10-04T18:27:47;8.90;;;6.22;;
33357;SDS011;19717;42.614;23.418;2022-10-04T18:30:15;9.93;;;6.00;;
33357;SDS011;19717;42.614;23.418;2022-10-04T18:32:49;15.73;;;9.30;;
33357;SDS011;19717;42.614;23.418;2022-10-04T18:35:26;15.63;;;9.40;;
33357;SDS011;19717;42.614;23.418;2022-10-04T18:37:54;9.40;;;7.18;;
33357;SDS011;19717;42.614;23.418;2022-10-04T18:40:21;12.65;;;7.35;;
33357;SDS011;19717;42.614;23.418;2022-10-04T18:42:52;13.23;;;7.85;;
33357;SDS011;19717;42.614;23.418;2022-10-04T18:45:27;23.40;;;12.38;;
33357;SDS011;19717;42.614;23.418;2022-10-04T18:47:55;20.77;;;10.60;;
33357;SDS011;19717;42.614;23.418;2022-10-04T19:07:20;8.40;;;6.18;;
33357;SDS011;19717;42.614;23.418;2022-10-04T19:12:14;9.55;;;6.70;;
33357;SDS011;19717;42.614;23.418;2022-10-04T19:20:09;7.28;;;5.43;;
33357;SDS011;19717;42.614;23.418;2022-10-04T19:27:34;13.27;;;7.85;;
33357;SDS011;19717;42.614;23.418;2022-10-04T19:30:40;7.57;;;6.72;;
33357;SDS011;19717;42.614;23.418;2022-10-04T19:32:58;8.70;;;6.18;;
33357;SDS011;19717;42.614;23.418;2022-10-04T19:35:35;10.15;;;6.05;;
33357;SDS011;19717;42.614;23.418;2022-10-04T19:40:39;9.20;;;7.32;;
33357;SDS011;19717;42.614;23.418;2022-10-04T19:43:13;10.57;;;7.88;;
33357;SDS011;19717;42.614;23.418;2022-10-04T19:48:18;10.30;;;8.27;;
33357;SDS011;19717;42.614;23.418;2022-10-04T19:50:46;14.02;;;9.00;;
33357;SDS011;19717;42.614;23.418;2022-10-04T19:53:18;14.77;;;8.38;;
33357;SDS011;19717;42.614;23.418;2022-10-04T19:55:54;9.68;;;6.55;;
33357;SDS011;19717;42.614;23.418;2022-10-04T20:00:48;9.00;;;5.95;;
33357;SDS011;19717;42.614;23.418;2022-10-04T20:03:14;11.07;;;5.63;;
33357;SDS011;19717;42.614;23.418;2022-10-04T20:05:47;8.20;;;6.20;;
33357;SDS011;19717;42.614;23.418;2022-10-04T20:08:14;10.95;;;6.60;;
33357;SDS011;19717;42.614;23.418;2022-10-04T20:10:40;16.25;;;9.73;;
33357;SDS011;19717;42.614;23.418;2022-10-04T20:13:20;14.82;;;9.18;;
33357;SDS011;19717;42.614;23.418;2022-10-04T20:15:51;10.10;;;6.43;;
33357;SDS011;19717;42.614;23.418;2022-10-04T20:26:04;15.02;;;8.77;;
33357;SDS011;19717;42.614;23.418;2022-10-04T20:35:58;8.55;;;6.68;;
33357;SDS011;19717;42.614;23.418;2022-10-04T20:38:41;8.95;;;6.68;;
33357;SDS011;19717;42.614;23.418;2022-10-04T20:43:36;9.32;;;5.55;;
33357;SDS011;19717;42.614;23.418;2022-10-04T20:46:20;8.35;;;6.25;;
33357;SDS011;19717;42.614;23.418;2022-10-04T20:48:47;8.82;;;6.55;;
33357;SDS011;19717;42.614;23.418;2022-10-04T20:51:13;7.93;;;6.07;;
33357;SDS011;19717;42.614;23.418;2022-10-04T20:53:44;9.18;;;6.03;;
33357;SDS011;19717;42.614;23.418;2022-10-04T20:56:20;9.93;;;5.93;;
33357;SDS011;19717;42.614;23.418;2022-10-04T20:59:00;9.40;;;6.20;;
33357;SDS011;19717;42.614;23.418;2022-10-04T21:01:33;11.30;;;6.78;;
33357;SDS011;19717;42.614;23.418;2022-10-04T21:04:12;9.48;;;6.68;;
33357;SDS011;19717;42.614;23.418;2022-10-04T21:06:51;10.00;;;7.20;;
33357;SDS011;19717;42.614;23.418;2022-10-04T21:09:17;12.25;;;7.28;;
33357;SDS011;19717;42.614;23.418;2022-10-04T21:11:44;14.55;;;7.78;;
33357;SDS011;19717;42.614;23.418;2022-10-04T21:14:24;14.55;;;9.52;;
33357;SDS011;19717;42.614;23.418;2022-10-04T21:16:51;18.23;;;10.20;;
33357;SDS011;19717;42.614;23.418;2022-10-04T21:22:09;17.23;;;11.05;;
33357;SDS011;19717;42.614;23.418;2022-10-04T21:24:52;20.40;;;12.75;;
33357;SDS011;19717;42.614;23.418;2022-10-04T21:27:31;19.40;;;9.85;;
33357;SDS011;19717;42.614;23.418;2022-10-04T21:29:58;20.75;;;10.65;;
33357;SDS011;19717;42.614;23.418;2022-10-04T21:32:25;9.40;;;7.25;;
33357;SDS011;19717;42.614;23.418;2022-10-04T21:34:51;10.32;;;7.88;;
33357;SDS011;19717;42.614;23.418;2022-10-04T21:37:17;9.65;;;7.60;;
33357;SDS011;19717;42.614;23.418;2022-10-04T21:39:43;9.35;;;6.97;;
33357;SDS011;19717;42.614;23.418;2022-10-04T21:42:10;8.73;;;6.90;;
33357;SDS011;19717;42.614;23.418;2022-10-04T21:44:36;7.80;;;5.95;;
33357;SDS011;19717;42.614;23.418;2022-10-04T21:47:02;9.02;;;6.68;;
33357;SDS011;19717;42.614;23.418;2022-10-04T21:49:28;7.93;;;6.30;;
33357;SDS011;19717;42.614;23.418;2022-10-04T21:51:54;12.45;;;7.20;;
33357;SDS011;19717;42.614;23.418;2022-10-04T21:54:20;11.82;;;7.55;;
33357;SDS011;19717;42.614;23.418;2022-10-04T21:56:46;8.23;;;6.10;;
33357;SDS011;19717;42.614;23.418;2022-10-04T21:59:12;9.77;;;6.30;;
33357;SDS011;19717;42.614;23.418;2022-10-04T22:01:38;9.27;;;6.57;;
33357;SDS011;19717;42.614;23.418;2022-10-04T22:04:04;10.13;;;7.53;;
33357;SDS011;19717;42.614;23.418;2022-10-04T22:06:30;11.30;;;7.68;;
33357;SDS011;19717;42.614;23.418;2022-10-04T22:08:56;10.25;;;6.47;;
33357;SDS011;19717;42.614;23.418;2022-10-04T22:11:22;14.25;;;6.88;;
33357;SDS011;19717;42.614;23.418;2022-10-04T22:13:49;12.45;;;7.78;;
33357;SDS011;19717;42.614;23.418;2022-10-04T22:16:15;13.45;;;7.93;;
33357;SDS011;19717;42.614;23.418;2022-10-04T22:18:41;12.70;;;8.50;;
33357;SDS011;19717;42.614;23.418;2022-10-04T22:21:07;12.50;;;7.85;;
33357;SDS011;19717;42.614;23.418;2022-10-04T22:23:37;12.77;;;7.60;;
33357;SDS011;19717;42.614;23.418;2022-10-04T22:26:17;15.52;;;9.45;;
33357;SDS011;19717;42.614;23.418;2022-10-04T22:28:47;13.68;;;9.50;;
33357;SDS011;19717;42.614;23.418;2022-10-04T22:31:14;22.13;;;11.88;;
33357;SDS011;19717;42.614;23.418;2022-10-04T22:33:41;20.00;;;11.20;;
33357;SDS011;19717;42.614;23.418;2022-10-04T22:38:37;21.70;;;12.38;;
33357;SDS011;19717;42.614;23.418;2022-10-04T22:41:11;21.10;;;11.30;;
33357;SDS011;19717;42.614;23.418;2022-10-04T22:43:37;39.33;;;19.58;;
33357;SDS011;19717;42.614;23.418;2022-10-04T22:46:04;16.50;;;9.70;;
33357;SDS011;19717;42.614;23.418;2022-10-04T22:48:30;17.92;;;10.57;;
33357;SDS011;19717;42.614;23.418;2022-10-04T22:50:56;35.28;;;17.35;;
33357;SDS011;19717;42.614;23.418;2022-10-04T22:53:23;32.65;;;16.92;;
33357;SDS011;19717;42.614;23.418;2022-10-04T22:55:49;32.67;;;16.65;;
33357;SDS011;19717;42.614;23.418;2022-10-04T22:58:16;21.52;;;13.30;;
33357;SDS011;19717;42.614;23.418;2022-10-04T23:00:45;21.95;;;13.63;;
33357;SDS011;19717;42.614;23.418;2022-10-04T23:05:40;19.15;;;12.45;;
33357;SDS011;19717;42.614;23.418;2022-10-04T23:08:07;19.48;;;11.85;;
33357;SDS011;19717;42.614;23.418;2022-10-04T23:10:33;17.25;;;10.18;;
33357;SDS011;19717;42.614;23.418;2022-10-04T23:12:59;18.83;;;10.10;;
33357;SDS011;19717;42.614;23.418;2022-10-04T23:15:25;14.90;;;10.13;;
33357;SDS011;19717;42.614;23.418;2022-10-04T23:17:52;15.18;;;7.70;;
33357;SDS011;19717;42.614;23.418;2022-10-04T23:20:19;10.23;;;7.65;;
33357;SDS011;19717;42.614;23.418;2022-10-04T23:22:46;12.32;;;7.40;;
33357;SDS011;19717;42.614;23.418;2022-10-04T23:25:17;8.45;;;6.82;;
33357;SDS011;19717;42.614;23.418;2022-10-04T23:27:43;12.52;;;8.02;;
33357;SDS011;19717;42.614;23.418;2022-10-04T23:30:16;13.15;;;7.53;;
33357;SDS011;19717;42.614;23.418;2022-10-04T23:32:44;10.63;;;7.72;;
33357;SDS011;19717;42.614;23.418;2022-10-04T23:35:13;15.00;;;8.65;;
33357;SDS011;19717;42.614;23.418;2022-10-04T23:37:40;12.77;;;8.55;;
33357;SDS011;19717;42.614;23.418;2022-10-04T23:40:10;12.38;;;8.38;;
33357;SDS011;19717;42.614;23.418;2022-10-04T23:42:38;13.43;;;9.27;;
33357;SDS011;19717;42.614;23.418;2022-10-04T23:45:17;13.00;;;8.70;;
33357;SDS011;19717;42.614;23.418;2022-10-04T23:47:43;12.60;;;8.73;;
33357;SDS011;19717;42.614;23.418;2022-10-04T23:52:42;15.32;;;8.57;;
33357;SDS011;19717;42.614;23.418;2022-10-04T23:55:12;13.55;;;8.32;;
33357;SDS011;19717;42.614;23.418;2022-10-04T23:57:40;15.32;;;8.60;;
